Terminal Aerodrome Forecast
Issued by NWS Wilmington, OH

Current Version | Previous Version | Graphics & Text | Print | Product List | Glossary On
Versions: 1 2 3 4 5 6 7 8 9 10 11 12 13 14 15 16 17
000
FTUS41 KILN 221400 AAA
TAFDAY
TAF AMD
KDAY 221451Z 2215/2312 31016KT P6SM SCT020
      TEMPO 2215/2216 BKN018
     FM221600 31017G25KT P6SM FEW035
     FM230000 33011KT P6SM SKC=

USA.gov is the U.S. government's official web portal to all federal, state and local government web resources and services.